createdAt,value
2023-05-10T00:01:56.428Z,99742.69
2023-05-10T00:04:28.378Z,99739.47
2023-05-10T00:06:56.220Z,99745.84
2023-05-10T00:09:23.952Z,99750.34
2023-05-10T00:11:51.732Z,99743.00
2023-05-10T00:14:19.748Z,99748.69
2023-05-10T00:16:47.564Z,99748.03
2023-05-10T00:19:15.394Z,99747.66
2023-05-10T00:21:44.954Z,99744.47
2023-05-10T00:24:12.719Z,99742.00
2023-05-10T00:26:40.471Z,99740.28
2023-05-10T00:29:08.190Z,99742.81
2023-05-10T00:31:36.039Z,99739.31
2023-05-10T00:34:03.822Z,99739.31
2023-05-10T00:36:32.229Z,99730.41
2023-05-10T00:39:01.747Z,99743.81
2023-05-10T00:41:29.563Z,99738.94
2023-05-10T00:43:57.267Z,99741.97
2023-05-10T00:46:25.441Z,99748.00
2023-05-10T00:48:53.750Z,99745.63
2023-05-10T00:51:21.765Z,99741.28
2023-05-10T00:53:51.542Z,99742.63
2023-05-10T00:56:21.555Z,99746.97
2023-05-10T00:58:49.192Z,99747.28
2023-05-10T01:01:17.025Z,99738.25
2023-05-10T01:03:45.063Z,99741.41
2023-05-10T01:06:12.809Z,99740.75
2023-05-10T01:08:41.145Z,99746.56
2023-05-10T01:11:09.044Z,99743.75
2023-05-10T01:13:40.861Z,99749.91
2023-05-10T01:16:09.335Z,99752.59
2023-05-10T01:18:40.265Z,99751.63
2023-05-10T01:21:19.388Z,99751.63
2023-05-10T01:24:17.227Z,99754.44
2023-05-10T01:27:04.408Z,99757.28
2023-05-10T01:30:14.803Z,99759.66
2023-05-10T01:32:52.581Z,99754.13
2023-05-10T01:35:28.715Z,99754.28
2023-05-10T01:38:05.958Z,99759.97
2023-05-10T01:40:41.577Z,99763.31
2023-05-10T01:43:19.686Z,99768.00
2023-05-10T01:45:52.868Z,99761.13
2023-05-10T01:48:23.390Z,99770.19
2023-05-10T01:50:54.005Z,99766.47
2023-05-10T01:53:23.551Z,99764.34
2023-05-10T01:55:54.595Z,99768.19
2023-05-10T01:58:27.121Z,99768.84
2023-05-10T02:00:55.935Z,99772.66
2023-05-10T02:03:28.262Z,99767.16
2023-05-10T02:05:58.106Z,99777.03
2023-05-10T02:08:27.003Z,99775.34
2023-05-10T02:10:57.863Z,99776.66
2023-05-10T02:13:27.187Z,99770.50
2023-05-10T02:15:56.983Z,99778.00
2023-05-10T02:18:29.283Z,99776.47
2023-05-10T02:20:58.682Z,99778.78
2023-05-10T02:23:28.322Z,99776.78
2023-05-10T02:25:58.399Z,99768.44
2023-05-10T02:28:28.644Z,99774.13
2023-05-10T02:30:57.395Z,99781.84
2023-05-10T02:33:27.781Z,99778.47
2023-05-10T02:35:56.502Z,99781.69
2023-05-10T02:38:26.554Z,99776.81
2023-05-10T02:40:55.831Z,99773.16
2023-05-10T02:43:25.378Z,99782.03
2023-05-10T02:45:53.202Z,99785.56
2023-05-10T02:48:20.951Z,99792.88
2023-05-10T02:50:52.745Z,99789.88
2023-05-10T02:53:24.865Z,99799.41
2023-05-10T02:55:56.970Z,99797.75
2023-05-10T02:58:24.733Z,99791.38
2023-05-10T03:00:52.510Z,99801.41
2023-05-10T03:03:22.074Z,99803.41
2023-05-10T03:05:51.202Z,99798.69
2023-05-10T03:08:19.089Z,99803.06
2023-05-10T03:10:56.684Z,99796.03
2023-05-10T03:13:36.329Z,99805.91
2023-05-10T03:16:10.634Z,99798.69
2023-05-10T03:18:46.288Z,99807.75
2023-05-10T03:21:17.383Z,99807.06
2023-05-10T03:23:49.843Z,99810.03
2023-05-10T03:26:22.800Z,99808.69
2023-05-10T03:28:51.927Z,99806.00
2023-05-10T03:31:20.160Z,99801.31
2023-05-10T03:33:49.443Z,99799.13
2023-05-10T03:36:18.792Z,99806.97
2023-05-10T03:38:46.702Z,99805.84
2023-05-10T03:41:14.976Z,99805.00
2023-05-10T03:43:42.881Z,99797.63
2023-05-10T03:46:10.618Z,99796.66
2023-05-10T03:48:38.423Z,99799.63
2023-05-10T03:51:06.231Z,99795.44
2023-05-10T03:53:35.327Z,99792.78
2023-05-10T03:56:03.028Z,99799.28
2023-05-10T03:58:30.733Z,99802.28
2023-05-10T04:00:58.475Z,99799.09
2023-05-10T04:03:26.886Z,99802.59
2023-05-10T04:06:02.690Z,99808.63
2023-05-10T04:08:30.591Z,99814.13
2023-05-10T04:11:08.819Z,99819.34
2023-05-10T04:13:36.654Z,99827.03
2023-05-10T04:16:04.733Z,99825.91
2023-05-10T04:18:32.791Z,99829.25
2023-05-10T04:21:00.634Z,99828.72
2023-05-10T04:23:29.010Z,99825.03
2023-05-10T04:26:01.990Z,99833.25
2023-05-10T04:28:31.205Z,99834.38
2023-05-10T04:31:03.601Z,99835.94
2023-05-10T04:33:31.494Z,99833.25
2023-05-10T04:35:59.511Z,99832.56
2023-05-10T04:38:27.902Z,99830.19
2023-05-10T04:40:55.786Z,99831.50
2023-05-10T04:43:23.691Z,99829.81
2023-05-10T04:45:52.811Z,99841.69
2023-05-10T04:48:20.719Z,99837.34
2023-05-10T04:50:48.522Z,99838.84
2023-05-10T04:53:17.202Z,99843.38
2023-05-10T04:55:45.281Z,99838.69
2023-05-10T04:58:13.003Z,99846.25
2023-05-10T05:00:40.957Z,99850.78
2023-05-10T05:03:11.378Z,99853.31
2023-05-10T05:05:39.115Z,99850.44
2023-05-10T05:08:07.846Z,99852.28
2023-05-10T05:10:35.933Z,99851.81
2023-05-10T05:13:03.787Z,99857.69
2023-05-10T05:15:32.016Z,99852.72
2023-05-10T05:17:59.840Z,99854.09
2023-05-10T05:20:29.054Z,99866.16
2023-05-10T05:22:56.803Z,99866.00
2023-05-10T05:25:24.807Z,99865.81
2023-05-10T05:27:52.541Z,99883.25
2023-05-10T05:30:20.380Z,99880.56
2023-05-10T05:32:48.420Z,99877.44
2023-05-10T05:35:16.549Z,99877.28
2023-05-10T05:37:45.768Z,99882.00
2023-05-10T05:40:14.985Z,99886.19
2023-05-10T05:42:42.920Z,99884.88
2023-05-10T05:45:14.065Z,99874.53
2023-05-10T05:47:42.190Z,99886.28
2023-05-10T05:50:11.200Z,99882.13
2023-05-10T05:52:39.237Z,99885.88
2023-05-10T05:55:09.300Z,99894.09
2023-05-10T05:57:37.318Z,99892.47
2023-05-10T06:00:06.167Z,99898.19
2023-05-10T06:02:34.192Z,99886.81
2023-05-10T06:05:02.209Z,99891.53
2023-05-10T06:07:30.434Z,99882.16
2023-05-10T06:09:58.349Z,99890.56
2023-05-10T06:12:27.672Z,99896.25
2023-05-10T06:14:55.449Z,99908.19
2023-05-10T06:17:23.199Z,99902.66
2023-05-10T06:19:51.168Z,99904.16
2023-05-10T06:22:18.861Z,99914.41
2023-05-10T06:24:46.516Z,99918.25
2023-05-10T06:27:14.338Z,99922.81
2023-05-10T06:29:44.224Z,99926.69
2023-05-10T06:32:12.029Z,99926.19
2023-05-10T06:34:39.778Z,99924.84
2023-05-10T06:37:07.580Z,99925.72
2023-05-10T06:39:35.357Z,99927.06
2023-05-10T06:42:05.550Z,99928.03
2023-05-10T06:44:33.349Z,99929.06
2023-05-10T06:47:02.554Z,99916.47
2023-05-10T06:49:30.584Z,99921.19
2023-05-10T06:51:58.597Z,99924.88
2023-05-10T06:54:26.565Z,99917.50
2023-05-10T06:56:55.089Z,99928.06
2023-05-10T06:59:23.044Z,99919.16
2023-05-10T07:01:50.961Z,99922.69
2023-05-10T07:04:20.287Z,99924.38
2023-05-10T07:06:48.402Z,99923.34
2023-05-10T07:09:16.717Z,99923.03
2023-05-10T07:11:44.620Z,99931.75
2023-05-10T07:14:12.728Z,99928.25
2023-05-10T07:16:41.851Z,99925.88
2023-05-10T07:19:10.067Z,99933.63
2023-05-10T07:21:41.329Z,99937.28
2023-05-10T07:24:09.096Z,99951.63
2023-05-10T07:26:36.979Z,99956.31
2023-05-10T07:29:04.982Z,99960.19
2023-05-10T07:31:32.884Z,99953.47
2023-05-10T07:34:00.877Z,99949.09
2023-05-10T07:36:28.952Z,99949.91
2023-05-10T07:38:58.812Z,99956.47
2023-05-10T07:41:26.949Z,99955.47
2023-05-10T07:43:54.753Z,99961.00
2023-05-10T07:46:22.696Z,99953.28
2023-05-10T07:48:50.514Z,99953.44
2023-05-10T07:51:18.344Z,99950.59
2023-05-10T07:53:46.216Z,99952.59
2023-05-10T07:56:28.198Z,99963.16
2023-05-10T07:58:56.351Z,99949.88
2023-05-10T08:01:24.485Z,99959.09
2023-05-10T08:03:54.301Z,99951.00
2023-05-10T08:06:23.231Z,99956.00
2023-05-10T08:08:51.801Z,99953.63
2023-05-10T08:11:19.931Z,99951.94
2023-05-10T08:13:49.961Z,99959.50
2023-05-10T08:16:18.248Z,99956.09
2023-05-10T08:18:47.798Z,99961.81
2023-05-10T08:21:16.593Z,99962.47
2023-05-10T08:23:45.225Z,99961.81
2023-05-10T08:26:13.431Z,99967.38
2023-05-10T08:28:41.248Z,99964.03
2023-05-10T08:31:10.510Z,99968.75
2023-05-10T08:33:38.336Z,99984.44
2023-05-10T08:36:06.385Z,99981.09
2023-05-10T08:38:34.752Z,99983.94
2023-05-10T08:41:04.548Z,99977.91
2023-05-10T08:43:33.619Z,99985.81
2023-05-10T08:46:03.908Z,99988.31
2023-05-10T08:48:36.194Z,99993.88
2023-05-10T08:51:05.868Z,99993.00
2023-05-10T08:53:36.560Z,99993.81
2023-05-10T08:56:05.235Z,99994.28
2023-05-10T08:58:33.340Z,100003.19
2023-05-10T09:01:01.723Z,99986.91
2023-05-10T09:03:29.673Z,99998.19
2023-05-10T09:05:59.061Z,99997.97
2023-05-10T09:08:27.854Z,99998.78
2023-05-10T09:10:57.507Z,100004.16
2023-05-10T09:13:27.208Z,100007.50
2023-05-10T09:15:55.523Z,100008.88
2023-05-10T09:18:23.625Z,100018.97
2023-05-10T09:20:52.068Z,100013.94
2023-05-10T09:23:21.159Z,100017.81
2023-05-10T09:25:49.088Z,100021.19
2023-05-10T09:28:16.952Z,100008.75
2023-05-10T09:30:44.859Z,100016.34
2023-05-10T09:33:12.774Z,100014.31
2023-05-10T09:35:41.306Z,100021.34
2023-05-10T09:38:09.373Z,100030.78
2023-05-10T09:40:38.932Z,100034.69
2023-05-10T09:43:09.572Z,100040.38
2023-05-10T09:45:39.143Z,100028.97
2023-05-10T09:48:08.276Z,100035.84
2023-05-10T09:50:36.148Z,100049.47
2023-05-10T09:53:05.434Z,100047.81
2023-05-10T09:55:45.244Z,100052.50
2023-05-10T09:58:13.565Z,100062.09
2023-05-10T10:00:43.069Z,100059.25
2023-05-10T10:03:15.570Z,100068.44
2023-05-10T10:05:44.409Z,100072.63
2023-05-10T10:08:12.890Z,100071.44
2023-05-10T10:10:42.364Z,100068.06
2023-05-10T10:13:10.379Z,100060.69
2023-05-10T10:15:38.995Z,100058.84
2023-05-10T10:18:07.543Z,100059.53
2023-05-10T10:20:35.830Z,100051.34
2023-05-10T10:23:04.258Z,100043.94
2023-05-10T10:25:32.036Z,100050.50
2023-05-10T10:28:15.234Z,100044.78
2023-05-10T10:30:45.282Z,100042.38
2023-05-10T10:33:35.977Z,100039.63
2023-05-10T10:36:05.393Z,100042.38
2023-05-10T10:38:58.841Z,100038.72
2023-05-10T10:41:34.390Z,100044.50
2023-05-10T10:44:35.450Z,100051.31
2023-05-10T10:47:28.375Z,100050.06
2023-05-10T10:50:04.592Z,100057.66
2023-05-10T10:52:36.619Z,100066.16
2023-05-10T10:55:07.615Z,100055.47
2023-05-10T10:57:45.709Z,100061.09
2023-05-10T11:00:29.623Z,100052.38
2023-05-10T11:03:00.182Z,100050.63
2023-05-10T11:05:39.822Z,100047.75
2023-05-10T11:08:28.583Z,100048.28
2023-05-10T11:11:07.908Z,100049.66
2023-05-10T11:13:39.500Z,100053.06
2023-05-10T11:16:20.236Z,100054.91
2023-05-10T11:19:04.895Z,100052.22
2023-05-10T11:21:33.633Z,100049.38
2023-05-10T11:24:06.516Z,100042.63
2023-05-10T11:26:36.817Z,100045.47
2023-05-10T11:29:05.979Z,100047.25
2023-05-10T11:31:35.494Z,100050.56
2023-05-10T11:34:03.729Z,100049.28
2023-05-10T11:36:35.150Z,100041.75
2023-05-10T11:39:02.989Z,100037.78
2023-05-10T11:41:32.487Z,100038.38
2023-05-10T11:44:00.738Z,100040.09
2023-05-10T11:46:29.996Z,100053.56
2023-05-10T11:49:02.962Z,100040.38
2023-05-10T11:51:31.249Z,100050.97
2023-05-10T11:53:59.206Z,100046.44
2023-05-10T11:56:28.010Z,100047.25
2023-05-10T11:58:57.635Z,100052.69
2023-05-10T12:01:26.107Z,100056.63
2023-05-10T12:03:55.363Z,100053.84
2023-05-10T12:06:24.838Z,100047.72
2023-05-10T12:08:54.710Z,100048.19
2023-05-10T12:11:23.438Z,100055.72
2023-05-10T12:13:51.181Z,100044.66
2023-05-10T12:16:20.283Z,100052.66
2023-05-10T12:18:50.403Z,100049.56
2023-05-10T12:21:18.399Z,100054.56
2023-05-10T12:23:49.337Z,100054.56
2023-05-10T12:26:17.354Z,100053.16
2023-05-10T12:28:45.401Z,100058.63
2023-05-10T12:31:13.157Z,100051.44
2023-05-10T12:33:43.372Z,100050.19
2023-05-10T12:36:11.871Z,100055.03
2023-05-10T12:38:44.097Z,100069.13
2023-05-10T12:41:15.390Z,100058.63
2023-05-10T12:43:43.925Z,100063.28
2023-05-10T12:46:12.834Z,100060.84
2023-05-10T12:48:41.994Z,100070.47
2023-05-10T12:51:10.592Z,100064.63
2023-05-10T12:53:38.521Z,100069.28
2023-05-10T12:56:06.922Z,100061.50
2023-05-10T12:58:36.421Z,100061.75
2023-05-10T13:01:05.851Z,100064.91
2023-05-10T13:03:33.722Z,100075.16
2023-05-10T13:06:01.566Z,100067.66
2023-05-10T13:08:34.155Z,100071.22
2023-05-10T13:11:02.260Z,100075.41
2023-05-10T13:13:30.243Z,100071.06
2023-05-10T13:15:59.291Z,100076.16
2023-05-10T13:18:27.384Z,100071.59
2023-05-10T13:20:56.727Z,100067.97
2023-05-10T13:23:24.724Z,100067.97
2023-05-10T13:25:53.083Z,100078.13
2023-05-10T13:28:20.849Z,100075.69
2023-05-10T13:30:48.973Z,100072.50
2023-05-10T13:33:18.294Z,100072.91
2023-05-10T13:35:46.257Z,100079.13
2023-05-10T13:38:14.769Z,100074.19
2023-05-10T13:40:42.684Z,100073.16
2023-05-10T13:43:10.633Z,100070.34
2023-05-10T13:45:38.411Z,100074.16
2023-05-10T13:48:06.933Z,100070.91
2023-05-10T13:50:36.065Z,100075.91
2023-05-10T13:53:03.894Z,100069.69
2023-05-10T13:55:31.674Z,100068.75
2023-05-10T13:57:59.396Z,100068.59
2023-05-10T14:00:27.184Z,100071.44
2023-05-10T14:02:55.637Z,100066.97
2023-05-10T14:05:26.263Z,100056.53
2023-05-10T14:07:56.342Z,100056.34
2023-05-10T14:10:24.249Z,100059.53
2023-05-10T14:12:52.153Z,100053.66
2023-05-10T14:15:20.060Z,100056.53
2023-05-10T14:17:48.042Z,100059.72
2023-05-10T14:20:16.040Z,100063.63
2023-05-10T14:22:43.909Z,100049.19
2023-05-10T14:25:13.122Z,100055.50
2023-05-10T14:27:41.064Z,100052.81
2023-05-10T14:30:10.023Z,100046.84
2023-05-10T14:32:38.708Z,100043.56
2023-05-10T14:35:08.986Z,100046.59
2023-05-10T14:37:38.663Z,100048.66
2023-05-10T14:40:08.230Z,100043.13
2023-05-10T14:42:37.303Z,100045.19
2023-05-10T14:45:05.746Z,100040.78
2023-05-10T14:47:33.457Z,100035.97
2023-05-10T14:50:01.166Z,100036.16
2023-05-10T14:52:28.917Z,100038.56
2023-05-10T14:54:56.815Z,100030.44
2023-05-10T14:57:24.687Z,100041.00
2023-05-10T14:59:54.072Z,100036.41
2023-05-10T15:02:22.619Z,100030.25
2023-05-10T15:04:50.975Z,100031.16
2023-05-10T15:07:19.393Z,100029.56
2023-05-10T15:09:47.642Z,100035.38
2023-05-10T15:12:15.426Z,100033.09
2023-05-10T15:14:43.133Z,100028.50
2023-05-10T15:17:12.477Z,100028.78
2023-05-10T15:19:40.276Z,100029.41
2023-05-10T15:22:08.130Z,100024.44
2023-05-10T15:24:36.106Z,100023.69
2023-05-10T15:27:03.896Z,100015.97
2023-05-10T15:29:32.512Z,100025.16
2023-05-10T15:32:00.419Z,100024.75
2023-05-10T15:34:29.768Z,100026.44
2023-05-10T15:36:58.241Z,100025.16
2023-05-10T15:39:26.025Z,100021.16
2023-05-10T15:41:53.766Z,100027.34
2023-05-10T15:44:21.530Z,100035.66
2023-05-10T15:46:49.287Z,100031.25
2023-05-10T15:49:17.088Z,100034.50
2023-05-10T15:51:46.181Z,100042.53
2023-05-10T15:54:13.980Z,100034.34
2023-05-10T15:56:42.318Z,100041.03
2023-05-10T15:59:11.569Z,100042.09
2023-05-10T16:01:39.360Z,100042.66
2023-05-10T16:04:07.117Z,100040.69
2023-05-10T16:06:34.762Z,100038.16
2023-05-10T16:09:03.958Z,100043.38
2023-05-10T16:11:31.733Z,100042.91
2023-05-10T16:13:59.499Z,100040.44
2023-05-10T16:16:27.406Z,100049.53
2023-05-10T16:18:55.248Z,100046.19
2023-05-10T16:21:23.033Z,100036.16
2023-05-10T16:23:50.837Z,100047.16
2023-05-10T16:26:19.946Z,100046.25
2023-05-10T16:28:48.117Z,100039.75
2023-05-10T16:31:15.861Z,100039.09
2023-05-10T16:33:43.664Z,100038.25
2023-05-10T16:36:11.615Z,100038.81
2023-05-10T16:38:39.344Z,100037.16
2023-05-10T16:41:07.824Z,100036.88
2023-05-10T16:43:37.728Z,100031.56
2023-05-10T16:46:11.285Z,100038.84
2023-05-10T16:48:39.192Z,100041.06
2023-05-10T16:51:07.175Z,100043.31
2023-05-10T16:53:35.036Z,100034.28
2023-05-10T16:56:02.859Z,100044.88
2023-05-10T16:58:30.682Z,100051.97
2023-05-10T17:01:00.153Z,100048.63
2023-05-10T17:03:28.014Z,100049.25
2023-05-10T17:05:55.799Z,100052.81
2023-05-10T17:08:24.019Z,100048.41
2023-05-10T17:10:51.796Z,100053.81
2023-05-10T17:13:19.536Z,100057.34
2023-05-10T17:15:48.434Z,100062.31
2023-05-10T17:18:22.276Z,100051.03
2023-05-10T17:20:50.190Z,100053.25
2023-05-10T17:23:17.928Z,100061.88
2023-05-10T17:25:45.799Z,100062.41
2023-05-10T17:28:13.739Z,100059.44
2023-05-10T17:30:41.933Z,100065.41
2023-05-10T17:33:09.735Z,100061.75
2023-05-10T17:35:38.902Z,100058.97
2023-05-10T17:38:06.928Z,100071.97
2023-05-10T17:40:34.671Z,100067.78
2023-05-10T17:43:02.501Z,100075.22
2023-05-10T17:45:30.438Z,100066.66
2023-05-10T17:47:58.200Z,100066.16
2023-05-10T17:50:26.127Z,100067.81
2023-05-10T17:52:55.226Z,100069.50
2023-05-10T17:55:22.948Z,100064.94
2023-05-10T17:57:51.937Z,100071.38
2023-05-10T18:00:20.176Z,100070.16
2023-05-10T18:02:47.944Z,100071.38
2023-05-10T18:05:15.961Z,100074.44
2023-05-10T18:07:44.072Z,100068.56
2023-05-10T18:10:13.565Z,100073.78
2023-05-10T18:12:41.580Z,100076.63
2023-05-10T18:15:10.344Z,100080.38
2023-05-10T18:17:38.271Z,100075.53
2023-05-10T18:20:07.407Z,100083.97
2023-05-10T18:22:35.312Z,100076.78
2023-05-10T18:25:03.213Z,100074.13
2023-05-10T18:27:32.400Z,100077.38
2023-05-10T18:30:00.258Z,100082.63
2023-05-10T18:32:28.153Z,100080.31
2023-05-10T18:34:56.636Z,100081.50
2023-05-10T18:37:24.649Z,100088.41
2023-05-10T18:39:52.647Z,100087.41
2023-05-10T18:42:20.590Z,100087.13
2023-05-10T18:44:49.872Z,100087.63
2023-05-10T18:47:17.775Z,100092.91
2023-05-10T18:49:46.213Z,100096.47
2023-05-10T18:52:16.024Z,100095.47
2023-05-10T18:54:43.770Z,100105.13
2023-05-10T18:57:12.391Z,100101.78
2023-05-10T18:59:40.340Z,100109.03
2023-05-10T19:02:09.911Z,100106.53
2023-05-10T19:04:37.932Z,100113.97
2023-05-10T19:07:05.939Z,100113.00
2023-05-10T19:09:33.746Z,100112.31
2023-05-10T19:12:01.625Z,100116.66
2023-05-10T19:14:30.028Z,100129.44
2023-05-10T19:16:57.853Z,100130.13
2023-05-10T19:19:27.545Z,100135.31
2023-05-10T19:21:57.058Z,100124.41
2023-05-10T19:24:25.943Z,100135.47
2023-05-10T19:26:55.436Z,100137.34
2023-05-10T19:29:24.929Z,100148.41
2023-05-10T19:31:53.573Z,100150.75
2023-05-10T19:34:22.042Z,100152.41
2023-05-10T19:36:51.488Z,100147.03
2023-05-10T19:39:19.538Z,100152.53
2023-05-10T19:41:49.392Z,100153.72
2023-05-10T19:44:18.076Z,100160.78
2023-05-10T19:46:47.167Z,100157.91
2023-05-10T19:49:15.137Z,100153.56
2023-05-10T19:51:43.062Z,100159.91
2023-05-10T19:54:12.370Z,100160.09
2023-05-10T19:56:40.225Z,100162.94
2023-05-10T19:59:08.090Z,100164.97
2023-05-10T20:01:36.134Z,100162.44
2023-05-10T20:04:04.046Z,100162.44
2023-05-10T20:06:31.911Z,100170.97
2023-05-10T20:08:59.783Z,100170.63
2023-05-10T20:11:28.894Z,100174.63
2023-05-10T20:13:56.995Z,100167.91
2023-05-10T20:16:26.608Z,100177.09
2023-05-10T20:18:54.779Z,100179.22
2023-05-10T20:21:23.945Z,100174.16
2023-05-10T20:23:51.814Z,100173.97
2023-05-10T20:26:19.554Z,100177.84
2023-05-10T20:28:48.657Z,100180.00
2023-05-10T20:31:16.489Z,100179.59
2023-05-10T20:33:44.332Z,100180.41
2023-05-10T20:36:12.224Z,100178.34
2023-05-10T20:38:40.387Z,100171.09
2023-05-10T20:41:08.223Z,100178.63
2023-05-10T20:43:35.996Z,100178.41
2023-05-10T20:46:06.606Z,100180.72
2023-05-10T20:48:34.520Z,100179.03
2023-05-10T20:51:03.215Z,100174.44
2023-05-10T20:53:30.967Z,100179.81
2023-05-10T20:55:58.704Z,100178.16
2023-05-10T20:58:26.492Z,100182.34
2023-05-10T21:00:54.224Z,100179.13
2023-05-10T21:03:23.369Z,100171.84
2023-05-10T21:05:51.129Z,100169.66
2023-05-10T21:08:19.173Z,100176.72
2023-05-10T21:10:47.483Z,100177.63
2023-05-10T21:13:15.255Z,100175.72
2023-05-10T21:15:42.964Z,100172.69
2023-05-10T21:18:10.693Z,100173.09
2023-05-10T21:20:39.796Z,100178.91
2023-05-10T21:23:07.582Z,100177.25
2023-05-10T21:25:35.668Z,100169.97
2023-05-10T21:28:03.371Z,100177.47
2023-05-10T21:30:31.208Z,100172.41
2023-05-10T21:32:59.988Z,100169.91
2023-05-10T21:35:27.864Z,100171.19
2023-05-10T21:37:57.365Z,100175.00
2023-05-10T21:40:25.090Z,100168.94
2023-05-10T21:42:52.812Z,100171.47
2023-05-10T21:45:21.109Z,100168.13
2023-05-10T21:47:49.372Z,100172.78
2023-05-10T21:50:17.645Z,100169.09
2023-05-10T21:52:45.588Z,100165.72
2023-05-10T21:55:14.658Z,100159.53
2023-05-10T21:57:42.472Z,100166.19
2023-05-10T22:00:12.460Z,100165.81
2023-05-10T22:02:40.410Z,100170.47
2023-05-10T22:05:08.933Z,100166.25
2023-05-10T22:07:36.702Z,100170.09
2023-05-10T22:10:05.616Z,100166.84
2023-05-10T22:12:34.798Z,100165.63
2023-05-10T22:17:33.596Z,100172.41
2023-05-10T22:20:01.490Z,100168.06
2023-05-10T22:22:29.238Z,100171.88
2023-05-10T22:24:56.970Z,100168.19
2023-05-10T22:27:24.750Z,100173.88
2023-05-10T22:29:54.017Z,100166.97
2023-05-10T22:32:21.801Z,100172.63
2023-05-10T22:34:49.989Z,100174.31
2023-05-10T22:37:18.056Z,100164.88
2023-05-10T22:39:46.563Z,100172.22
2023-05-10T22:42:14.431Z,100168.00
2023-05-10T22:44:42.398Z,100173.50
2023-05-10T22:47:11.703Z,100174.19
2023-05-10T22:49:39.542Z,100172.97
2023-05-10T22:52:07.408Z,100168.06
2023-05-10T22:54:36.263Z,100175.38
2023-05-10T22:57:04.614Z,100176.41
2023-05-10T22:59:32.440Z,100183.00
2023-05-10T23:02:02.728Z,100179.63
2023-05-10T23:04:32.006Z,100182.63
2023-05-10T23:06:59.911Z,100181.91
2023-05-10T23:09:27.637Z,100179.69
2023-05-10T23:11:55.829Z,100183.47
2023-05-10T23:14:23.611Z,100183.78
2023-05-10T23:16:51.338Z,100194.03
2023-05-10T23:19:19.164Z,100185.31
2023-05-10T23:21:48.410Z,100190.09
2023-05-10T23:24:16.104Z,100191.25
2023-05-10T23:26:46.312Z,100194.06
2023-05-10T23:29:14.110Z,100194.22
2023-05-10T23:31:45.706Z,100194.38
2023-05-10T23:34:13.619Z,100192.81
2023-05-10T23:36:41.566Z,100196.63
2023-05-10T23:39:12.010Z,100192.41
2023-05-10T23:41:39.689Z,100198.03
2023-05-10T23:44:07.465Z,100205.22
2023-05-10T23:46:35.200Z,100209.47
2023-05-10T23:49:02.945Z,100202.56
2023-05-10T23:51:30.707Z,100200.59
2023-05-10T23:53:58.831Z,100203.28
2023-05-10T23:56:27.984Z,100195.28
2023-05-10T23:58:55.795Z,100195.53
